Time;durP1;ratioP1;P1;durP2;ratioP2;P2;SDS_P1;SDS_P2;PMS_P1;PMS_P2;Temp;Humidity;BMP_temperature;BMP_pressure;BME280_temperature;BME280_humidity;BME280_pressure;Samples;Min_cycle;Max_cycle;Signal;HPM_P1;HPM_P2
2023/10/24 00:01:28;;;;;;;5.03;1.70;;;11.40;99.90;;;;;;15480201;23;20023;-82
2023/10/24 00:07:30;;;;;;;6.70;2.10;;;11.50;99.90;;;;;;15463527;23;20024;-82
2023/10/24 00:13:32;;;;;;;3.40;1.60;;;11.50;99.90;;;;;;15464222;23;20095;-82
2023/10/24 00:19:34;;;;;;;5.43;1.75;;;11.40;99.90;;;;;;15462140;23;20457;-81
2023/10/24 00:25:36;;;;;;;6.93;1.80;;;11.40;99.90;;;;;;15464114;23;20024;-81
2023/10/24 00:31:38;;;;;;;6.90;2.33;;;11.50;99.90;;;;;;15465266;23;20028;-81
2023/10/24 00:37:41;;;;;;;5.65;1.90;;;11.50;99.90;;;;;;15466477;23;20024;-80
2023/10/24 00:43:42;;;;;;;5.15;1.90;;;11.50;99.90;;;;;;15458479;23;20438;-81
2023/10/24 00:49:45;;;;;;;7.93;2.28;;;11.50;99.90;;;;;;15461592;23;20031;-80
2023/10/24 00:55:47;;;;;;;5.53;1.88;;;11.50;99.90;;;;;;15461141;22;20462;-81
2023/10/24 01:01:50;;;;;;;5.50;2.20;;;11.50;99.90;;;;;;15463087;23;20519;-81
2023/10/24 01:07:52;;;;;;;7.85;2.22;;;11.50;99.90;;;;;;15456740;23;20465;-81
2023/10/24 01:13:56;;;;;;;3.97;1.65;;;11.50;99.90;;;;;;15462758;23;20034;-81
2023/10/24 01:19:58;;;;;;;3.88;1.60;;;11.50;99.90;;;;;;15461975;23;20024;-80
2023/10/24 01:26:00;;;;;;;3.45;1.85;;;11.50;99.90;;;;;;15461197;23;20548;-80
2023/10/24 01:32:02;;;;;;;6.35;1.38;;;11.60;99.90;;;;;;15488617;23;20020;-81
2023/10/24 01:38:04;;;;;;;3.55;1.40;;;11.70;99.90;;;;;;15460838;23;20024;-82
2023/10/24 01:44:07;;;;;;;6.45;1.60;;;11.70;99.90;;;;;;15463381;23;20458;-80
2023/10/24 01:50:09;;;;;;;4.25;1.20;;;11.80;99.90;;;;;;15474393;23;20032;-81
2023/10/24 01:56:12;;;;;;;5.00;1.20;;;11.90;99.90;;;;;;15461540;22;20044;-80
2023/10/24 02:02:14;;;;;;;3.55;1.00;;;12.00;99.90;;;;;;15493287;23;20031;-80
2023/10/24 02:08:17;;;;;;;6.38;1.23;;;12.00;99.90;;;;;;15433483;23;20082;-79
2023/10/24 02:14:19;;;;;;;4.80;1.17;;;12.10;99.90;;;;;;15467850;23;20031;-78
2023/10/24 02:20:21;;;;;;;5.97;1.10;;;12.10;99.90;;;;;;15463980;23;20030;-79
2023/10/24 02:26:23;;;;;;;5.03;1.10;;;12.20;99.90;;;;;;15461551;23;20032;-79
2023/10/24 02:32:25;;;;;;;5.47;1.35;;;12.20;99.90;;;;;;15463501;23;20020;-78
2023/10/24 02:38:27;;;;;;;2.97;1.05;;;12.20;99.90;;;;;;15480313;23;20074;-79
2023/10/24 02:44:29;;;;;;;4.03;1.25;;;12.10;99.90;;;;;;15481811;23;20094;-79
2023/10/24 02:50:31;;;;;;;6.00;1.30;;;12.20;99.90;;;;;;15479459;23;20354;-80
2023/10/24 02:56:33;;;;;;;4.18;1.20;;;12.10;99.90;;;;;;15453056;22;20020;-79
2023/10/24 03:02:35;;;;;;;5.22;1.25;;;12.10;99.90;;;;;;15478723;23;20031;-81
2023/10/24 03:08:37;;;;;;;4.55;1.38;;;12.10;99.90;;;;;;15481729;23;20346;-80
2023/10/24 03:14:39;;;;;;;5.93;1.30;;;12.10;99.90;;;;;;15481956;23;20028;-79
2023/10/24 03:20:41;;;;;;;6.18;1.55;;;12.10;99.90;;;;;;15457024;23;20020;-81
2023/10/24 03:26:44;;;;;;;4.00;1.23;;;12.20;99.90;;;;;;15455731;23;20035;-79
2023/10/24 03:32:45;;;;;;;4.13;1.30;;;12.10;99.90;;;;;;15450262;23;20438;-80
2023/10/24 03:38:47;;;;;;;5.53;1.30;;;12.00;99.90;;;;;;15455976;23;20073;-81
2023/10/24 03:44:49;;;;;;;5.60;1.40;;;12.00;99.90;;;;;;15470117;23;20028;-78
2023/10/24 03:50:51;;;;;;;4.70;1.40;;;12.00;99.90;;;;;;15494588;23;20082;-79
2023/10/24 03:56:53;;;;;;;4.90;1.50;;;12.00;99.90;;;;;;15498729;22;20059;-78
2023/10/24 04:02:56;;;;;;;4.03;1.20;;;12.00;99.90;;;;;;15484935;23;20024;-79
2023/10/24 04:09:02;;;;;;;4.18;1.33;;;12.00;99.90;;;;;;15479168;23;20067;-79
2023/10/24 04:15:05;;;;;;;4.63;1.60;;;12.00;99.90;;;;;;15460441;23;20035;-79
2023/10/24 04:21:07;;;;;;;3.80;1.40;;;12.00;99.90;;;;;;15463321;23;20020;-81
2023/10/24 04:27:10;;;;;;;5.43;1.60;;;12.10;99.90;;;;;;15459874;23;20024;-79
2023/10/24 04:33:12;;;;;;;5.32;1.70;;;12.00;99.90;;;;;;15460528;23;20543;-80
2023/10/24 04:39:14;;;;;;;3.78;1.63;;;12.00;99.90;;;;;;15458636;23;20024;-80
2023/10/24 04:45:16;;;;;;;4.63;1.60;;;12.00;99.90;;;;;;15479575;23;20035;-81
2023/10/24 04:51:17;;;;;;;5.57;1.67;;;12.00;99.90;;;;;;15486128;23;20039;-81
2023/10/24 04:57:19;;;;;;;5.03;1.50;;;12.00;99.90;;;;;;15459461;22;20457;-80
2023/10/24 05:03:21;;;;;;;5.05;1.52;;;12.10;99.90;;;;;;15458315;23;20027;-79
2023/10/24 05:09:24;;;;;;;9.43;1.58;;;12.10;99.90;;;;;;15460233;23;20031;-79
2023/10/24 05:15:26;;;;;;;4.25;1.50;;;12.10;99.90;;;;;;15472429;23;20151;-80
2023/10/24 05:21:27;;;;;;;4.78;1.48;;;12.10;99.90;;;;;;15485807;23;20051;-81
2023/10/24 05:27:31;;;;;;;2.95;1.40;;;12.20;99.90;;;;;;15476960;23;20035;-79
2023/10/24 05:33:37;;;;;;;8.30;2.45;;;12.20;99.90;;;;;;15468125;23;20450;-80
2023/10/24 05:39:39;;;;;;;7.20;1.80;;;12.20;99.90;;;;;;15507099;23;20482;-79
2023/10/24 05:45:41;;;;;;;5.68;1.50;;;12.20;99.90;;;;;;15502860;23;20034;-79
2023/10/24 05:51:44;;;;;;;3.85;1.70;;;12.20;99.90;;;;;;15447152;23;20028;-80
2023/10/24 05:57:46;;;;;;;4.75;1.55;;;12.30;99.90;;;;;;15485140;22;20284;-80
2023/10/24 06:03:47;;;;;;;3.78;1.38;;;12.30;99.90;;;;;;15468998;23;20071;-80
2023/10/24 06:09:49;;;;;;;4.43;1.38;;;12.30;99.90;;;;;;15483931;23;20055;-80
2023/10/24 06:15:51;;;;;;;4.55;1.38;;;12.30;99.90;;;;;;15456050;23;20035;-79
2023/10/24 06:21:54;;;;;;;6.95;2.30;;;12.40;99.90;;;;;;15457380;23;20039;-79
2023/10/24 06:27:56;;;;;;;5.90;1.50;;;12.40;99.90;;;;;;15447398;23;20032;-80
2023/10/24 06:33:59;;;;;;;8.30;1.90;;;12.30;99.90;;;;;;15458596;23;20439;-80
2023/10/24 06:40:01;;;;;;;4.63;1.40;;;12.30;99.90;;;;;;15460365;23;20028;-82
2023/10/24 06:46:04;;;;;;;4.60;1.48;;;12.40;99.90;;;;;;15455471;23;20024;-82
2023/10/24 06:52:07;;;;;;;3.23;1.47;;;12.30;99.90;;;;;;15452207;23;20024;-82
2023/10/24 06:58:08;;;;;;;2.63;1.20;;;12.40;99.90;;;;;;15481749;22;20020;-81
2023/10/24 07:04:10;;;;;;;3.60;1.30;;;12.30;99.90;;;;;;15480330;23;20458;-82
2023/10/24 07:10:12;;;;;;;3.28;1.60;;;12.40;99.90;;;;;;15457332;23;20024;-81
2023/10/24 07:16:15;;;;;;;2.65;1.00;;;12.30;99.90;;;;;;15485667;23;20074;-81
2023/10/24 07:22:17;;;;;;;3.17;1.50;;;12.30;99.90;;;;;;15478327;23;20028;-81
2023/10/24 07:28:20;;;;;;;3.03;1.40;;;12.40;99.90;;;;;;15542731;22;20076;-81
2023/10/24 07:34:21;;;;;;;4.63;1.60;;;12.40;99.90;;;;;;15511209;23;20036;-80
2023/10/24 07:40:24;;;;;;;3.63;1.35;;;12.40;99.90;;;;;;15514238;23;20035;-82
2023/10/24 07:46:26;;;;;;;4.03;1.45;;;12.50;99.90;;;;;;15494877;23;20028;-80
2023/10/24 07:52:29;;;;;;;4.28;1.42;;;12.50;99.90;;;;;;15481151;23;20422;-81
2023/10/24 07:58:31;;;;;;;7.13;1.87;;;12.60;99.90;;;;;;15480878;22;20016;-81
2023/10/24 08:04:34;;;;;;;2.60;1.35;;;12.60;99.90;;;;;;15485198;23;20028;-82
2023/10/24 08:10:37;;;;;;;3.85;1.38;;;12.60;99.90;;;;;;15463610;23;20024;-82
2023/10/24 08:16:39;;;;;;;2.13;1.20;;;12.70;99.90;;;;;;15454213;23;20031;-82
2023/10/24 08:22:41;;;;;;;2.72;1.20;;;12.80;99.90;;;;;;15487567;23;20032;-83
2023/10/24 08:28:43;;;;;;;5.95;1.55;;;12.70;99.90;;;;;;15476258;23;20028;-81
2023/10/24 08:34:45;;;;;;;2.55;1.30;;;12.70;99.90;;;;;;15474898;23;20024;-81
2023/10/24 08:40:47;;;;;;;3.70;1.55;;;12.70;99.90;;;;;;15464776;23;20024;-81
2023/10/24 08:46:50;;;;;;;2.65;1.35;;;12.70;99.90;;;;;;15448236;23;20031;-81
2023/10/24 08:52:52;;;;;;;7.07;1.65;;;12.60;99.90;;;;;;15449898;23;20021;-82
2023/10/24 08:58:57;;;;;;;3.92;2.22;;;12.70;99.90;;;;;;15432732;23;20067;-84
2023/10/24 09:05:00;;;;;;;3.70;1.80;;;12.50;99.90;;;;;;15471848;23;20556;-83
2023/10/24 09:11:02;;;;;;;3.65;2.00;;;12.40;99.90;;;;;;15473801;23;20111;-83
2023/10/24 09:17:04;;;;;;;5.00;1.77;;;12.40;99.90;;;;;;15475656;23;20024;-83
2023/10/24 09:23:07;;;;;;;3.47;1.77;;;12.50;99.90;;;;;;15444049;23;20034;-83
2023/10/24 09:29:10;;;;;;;3.60;1.40;;;12.60;99.90;;;;;;15450079;23;20098;-81
2023/10/24 09:35:13;;;;;;;1.85;1.20;;;12.70;99.90;;;;;;15453333;23;20024;-83
2023/10/24 09:41:16;;;;;;;2.10;1.10;;;12.80;99.90;;;;;;15453416;23;20031;-83
2023/10/24 09:47:19;;;;;;;4.40;1.08;;;12.90;99.90;;;;;;15445279;23;20028;-83
2023/10/24 09:53:22;;;;;;;4.15;1.83;;;12.80;99.90;;;;;;15476334;23;20768;-83
2023/10/24 09:59:26;;;;;;;3.90;1.52;;;12.90;99.90;;;;;;15470939;22;20047;-82
2023/10/24 10:05:31;;;;;;;2.78;1.30;;;12.90;99.90;;;;;;15479636;23;20027;-82
2023/10/24 10:11:34;;;;;;;3.08;1.10;;;12.90;99.90;;;;;;15459010;23;20024;-81
2023/10/24 10:17:58;;;;;;;1.67;0.82;;;12.90;99.90;;;;;;15502980;23;20025;-82
2023/10/24 10:24:19;;;;;;;2.58;1.05;;;12.90;99.90;;;;;;15487284;23;20032;-82
2023/10/24 10:30:48;;;;;;;3.40;1.00;;;12.90;99.90;;;;;;15494585;23;20553;-81
2023/10/24 10:37:10;;;;;;;2.22;1.10;;;12.90;99.90;;;;;;15508064;23;20016;-82
2023/10/24 10:43:29;;;;;;;1.75;0.90;;;13.00;99.90;;;;;;15484401;23;20028;-81
2023/10/24 10:49:43;;;;;;;2.50;1.15;;;13.00;99.90;;;;;;15479120;23;20027;-81
2023/10/24 10:56:12;;;;;;;3.45;1.13;;;13.00;99.90;;;;;;15481117;22;20028;-82
2023/10/24 11:02:29;;;;;;;2.28;1.17;;;13.00;99.90;;;;;;15447312;23;20020;-83
2023/10/24 11:08:32;;;;;;;2.15;0.90;;;13.10;99.90;;;;;;15453451;23;20032;-82
2023/10/24 11:14:35;;;;;;;1.65;0.98;;;13.30;99.90;;;;;;15446406;23;20020;-82
2023/10/24 11:20:37;;;;;;;5.40;1.25;;;13.20;99.90;;;;;;15476955;23;20020;-81
2023/10/24 11:26:42;;;;;;;3.10;0.77;;;13.30;99.90;;;;;;15470634;23;20051;-82
2023/10/24 11:32:44;;;;;;;1.48;0.82;;;13.30;99.90;;;;;;15444203;23;20055;-82
2023/10/24 11:38:47;;;;;;;2.03;0.85;;;13.20;99.90;;;;;;15471380;23;20027;-82
2023/10/24 11:44:49;;;;;;;2.30;0.80;;;13.20;99.90;;;;;;15464723;23;20028;-82
2023/10/24 11:50:52;;;;;;;1.90;1.40;;;13.20;99.90;;;;;;15465048;23;20036;-83
2023/10/24 11:56:54;;;;;;;2.08;1.08;;;13.20;99.90;;;;;;15474189;22;20346;-82
2023/10/24 12:03:02;;;;;;;3.10;1.00;;;13.20;99.90;;;;;;15435462;23;20126;-81
2023/10/24 12:09:05;;;;;;;4.90;1.10;;;13.20;99.90;;;;;;15444717;23;20233;-83
2023/10/24 12:15:08;;;;;;;4.57;1.20;;;13.20;99.90;;;;;;15438911;23;20345;-82
2023/10/24 12:21:10;;;;;;;3.20;0.98;;;13.10;99.90;;;;;;15458850;23;20020;-81
2023/10/24 12:27:12;;;;;;;1.58;0.98;;;13.20;99.90;;;;;;15439257;23;20035;-82
2023/10/24 12:33:14;;;;;;;3.15;0.88;;;13.30;99.90;;;;;;15439423;23;20021;-81
2023/10/24 12:39:17;;;;;;;1.23;0.77;;;13.30;99.90;;;;;;15448922;23;20020;-82
2023/10/24 12:45:21;;;;;;;2.20;0.80;;;13.20;99.90;;;;;;15449516;23;20391;-81
2023/10/24 12:51:23;;;;;;;1.95;0.90;;;13.20;99.90;;;;;;15449076;23;20028;-81
2023/10/24 12:57:25;;;;;;;1.05;0.75;;;13.20;99.90;;;;;;15443686;22;20028;-81
2023/10/24 13:03:27;;;;;;;1.40;0.80;;;13.20;99.90;;;;;;15447013;23;20024;-81
2023/10/24 13:09:29;;;;;;;2.28;0.88;;;13.20;99.90;;;;;;15446561;23;20024;-83
2023/10/24 13:15:31;;;;;;;4.70;1.10;;;13.20;99.90;;;;;;15476061;23;20100;-83
2023/10/24 13:21:33;;;;;;;5.10;0.93;;;13.10;99.90;;;;;;15480525;23;20028;-82
2023/10/24 13:27:35;;;;;;;2.08;1.10;;;13.20;99.90;;;;;;15439072;23;20024;-82
2023/10/24 13:33:37;;;;;;;1.90;0.90;;;13.20;99.90;;;;;;15438912;23;20028;-83
2023/10/24 13:40:00;;;;;;;2.35;0.70;;;13.20;99.90;;;;;;15445765;23;20082;-82
2023/10/24 13:46:03;;;;;;;2.88;0.82;;;13.30;99.90;;;;;;15450269;23;20031;-82
2023/10/24 13:52:05;;;;;;;1.63;0.60;;;13.30;99.90;;;;;;15440429;23;20052;-83
2023/10/24 13:58:10;;;;;;;2.28;0.68;;;13.30;99.90;;;;;;15446519;22;20031;-83
2023/10/24 14:04:12;;;;;;;2.65;0.68;;;13.40;99.90;;;;;;15470272;23;20020;-82
2023/10/24 14:10:14;;;;;;;3.03;0.80;;;13.40;99.90;;;;;;15445707;23;20031;-82
2023/10/24 14:16:16;;;;;;;1.98;0.80;;;13.30;99.90;;;;;;15440278;23;20468;-81
2023/10/24 14:22:18;;;;;;;1.02;0.60;;;13.20;99.90;;;;;;15466333;23;20099;-81
2023/10/24 14:28:20;;;;;;;1.85;0.63;;;13.30;99.90;;;;;;15466161;23;20450;-82
2023/10/24 14:34:22;;;;;;;2.47;1.13;;;13.20;99.90;;;;;;15447020;23;20186;-83
2023/10/24 14:40:24;;;;;;;3.65;0.90;;;13.20;99.90;;;;;;15470991;23;20031;-83
2023/10/24 14:46:26;;;;;;;2.15;0.85;;;13.10;99.90;;;;;;15443029;23;20346;-83
2023/10/24 14:52:28;;;;;;;2.10;0.90;;;13.00;99.90;;;;;;15436544;23;20031;-83
2023/10/24 14:58:30;;;;;;;1.77;0.80;;;13.00;99.90;;;;;;15437537;22;21082;-82
2023/10/24 15:04:33;;;;;;;4.65;1.13;;;12.90;99.90;;;;;;15441331;23;20027;-82
2023/10/24 15:10:35;;;;;;;4.82;1.20;;;12.90;99.90;;;;;;15438803;23;20099;-83
2023/10/24 15:16:36;;;;;;;1.73;0.90;;;12.80;99.90;;;;;;15469411;23;20039;-82
2023/10/24 15:22:38;;;;;;;4.40;1.35;;;12.80;99.90;;;;;;15450189;23;20027;-83
2023/10/24 15:28:40;;;;;;;4.88;1.38;;;12.80;99.90;;;;;;15467334;23;20020;-82
2023/10/24 15:34:42;;;;;;;2.97;1.13;;;12.70;99.90;;;;;;15437744;23;20591;-82
2023/10/24 15:40:45;;;;;;;4.65;1.55;;;12.70;99.90;;;;;;15475589;23;20024;-82
2023/10/24 15:46:47;;;;;;;2.92;1.20;;;12.60;99.90;;;;;;15454927;23;20147;-82
2023/10/24 15:52:49;;;;;;;2.25;1.00;;;12.50;99.90;;;;;;15455835;23;20024;-82
2023/10/24 15:58:51;;;;;;;4.07;1.25;;;12.40;99.90;;;;;;15456651;23;20123;-81
2023/10/24 16:04:53;;;;;;;5.10;1.55;;;12.40;99.90;;;;;;15459312;23;20025;-82
2023/10/24 16:10:55;;;;;;;3.60;1.90;;;12.30;99.90;;;;;;15458684;23;20330;-81
2023/10/24 16:16:59;;;;;;;3.70;1.50;;;12.30;99.90;;;;;;15462765;23;20028;-80
2023/10/24 16:23:02;;;;;;;4.25;1.98;;;12.20;99.90;;;;;;15457404;23;20043;-82
2023/10/24 16:29:04;;;;;;;5.50;2.20;;;12.20;99.90;;;;;;15476699;23;20097;-82
2023/10/24 16:35:07;;;;;;;5.20;2.22;;;12.10;99.90;;;;;;15452314;23;20024;-82
2023/10/24 16:41:09;;;;;;;6.53;2.50;;;12.10;99.90;;;;;;15454928;23;20450;-80
2023/10/24 16:47:11;;;;;;;7.22;2.42;;;12.10;99.90;;;;;;15450863;23;20028;-80
2023/10/24 16:53:14;;;;;;;4.78;2.47;;;12.00;99.90;;;;;;15477554;23;20098;-81
2023/10/24 16:59:16;;;;;;;4.95;2.50;;;12.00;99.90;;;;;;15443711;23;20138;-81
2023/10/24 17:05:18;;;;;;;3.90;2.45;;;11.90;99.90;;;;;;15474378;23;20020;-80
2023/10/24 17:11:20;;;;;;;5.28;2.35;;;11.70;99.90;;;;;;15475170;23;20260;-80
2023/10/24 17:17:22;;;;;;;4.03;2.30;;;11.70;99.90;;;;;;15471666;23;20032;-80
2023/10/24 17:23:27;;;;;;;3.55;2.15;;;11.60;99.90;;;;;;15445012;23;20378;-80
2023/10/24 17:29:31;;;;;;;3.15;2.20;;;11.40;99.90;;;;;;15439509;23;20027;-80
2023/10/24 17:35:33;;;;;;;3.47;2.00;;;11.40;99.90;;;;;;15453995;23;20052;-80
2023/10/24 17:41:35;;;;;;;3.63;2.15;;;11.40;99.90;;;;;;15451838;23;20028;-79
2023/10/24 17:47:37;;;;;;;4.88;2.35;;;11.30;99.90;;;;;;15506341;23;20024;-80
2023/10/24 17:53:39;;;;;;;3.15;2.08;;;11.30;99.90;;;;;;15501250;23;20059;-80
2023/10/24 17:59:41;;;;;;;4.82;2.40;;;11.30;99.90;;;;;;15508674;23;20024;-83
2023/10/24 18:05:46;;;;;;;5.07;2.35;;;11.10;99.90;;;;;;15476887;23;20727;-80
2023/10/24 18:11:48;;;;;;;3.40;2.38;;;11.10;99.90;;;;;;15452889;23;20462;-80
2023/10/24 18:17:50;;;;;;;11.82;4.18;;;11.10;99.90;;;;;;15470163;23;20035;-79
2023/10/24 18:23:52;;;;;;;3.85;2.78;;;11.00;99.90;;;;;;15450863;23;20027;-80
2023/10/24 18:29:55;;;;;;;4.15;2.88;;;11.10;99.90;;;;;;15440732;23;20103;-79
2023/10/24 18:35:57;;;;;;;5.45;3.40;;;11.00;99.90;;;;;;15482515;23;20342;-80
2023/10/24 18:41:58;;;;;;;7.40;4.35;;;10.90;99.90;;;;;;15476090;23;20031;-80
2023/10/24 18:48:00;;;;;;;6.57;3.90;;;11.00;99.90;;;;;;15480463;23;20027;-80
2023/10/24 18:54:03;;;;;;;6.00;4.55;;;11.00;99.90;;;;;;15446623;23;20028;-81
2023/10/24 19:00:05;;;;;;;8.60;5.07;;;10.90;99.90;;;;;;15446102;23;20038;-79
2023/10/24 19:06:07;;;;;;;7.40;6.22;;;10.90;99.90;;;;;;15441587;23;20020;-80
2023/10/24 19:12:10;;;;;;;9.13;6.63;;;10.90;99.90;;;;;;15448558;23;20031;-79
2023/10/24 19:18:16;;;;;;;8.48;6.25;;;10.90;99.90;;;;;;15442310;23;20502;-81
2023/10/24 19:24:18;;;;;;;8.60;6.40;;;10.90;99.90;;;;;;15441006;23;20024;-80
2023/10/24 19:30:21;;;;;;;7.93;5.93;;;10.90;99.90;;;;;;15450394;23;20024;-81
2023/10/24 19:36:23;;;;;;;8.32;5.70;;;10.80;99.90;;;;;;15469158;23;20028;-80
2023/10/24 19:42:26;;;;;;;8.38;6.38;;;10.80;99.90;;;;;;15480152;23;20465;-82
2023/10/24 19:48:30;;;;;;;10.30;6.95;;;10.80;99.90;;;;;;15471837;23;20099;-81
2023/10/24 19:54:33;;;;;;;7.53;6.47;;;10.80;99.90;;;;;;15464969;23;20107;-83
2023/10/24 20:00:35;;;;;;;8.18;5.82;;;10.70;99.90;;;;;;15440589;23;20027;-82
2023/10/24 20:06:40;;;;;;;8.55;6.60;;;10.80;99.90;;;;;;15437693;23;20024;-81
2023/10/24 20:12:42;;;;;;;;;;;10.80;99.90;;;;;;15463644;23;20331;-81
2023/10/24 20:18:46;;;;;;;17.73;7.65;;;10.70;99.90;;;;;;15460407;23;19943;-81
2023/10/24 20:24:48;;;;;;;9.53;7.77;;;10.70;99.90;;;;;;15437462;23;20122;-81
2023/10/24 20:30:50;;;;;;;10.38;8.18;;;10.60;99.90;;;;;;15437285;23;20133;-83
2023/10/24 20:36:52;;;;;;;10.65;8.52;;;10.60;99.90;;;;;;15440468;23;20338;-80
2023/10/24 20:42:54;;;;;;;11.20;7.90;;;10.60;99.90;;;;;;15469559;23;20868;-81
2023/10/24 20:48:57;;;;;;;10.73;8.65;;;10.50;99.90;;;;;;15447648;23;20106;-81
2023/10/24 20:55:02;;;;;;;13.48;8.95;;;10.50;99.90;;;;;;15437322;22;20028;-80
2023/10/24 21:01:11;;;;;;;11.52;9.25;;;10.50;99.90;;;;;;15463908;23;20135;-81
2023/10/24 21:07:13;;;;;;;13.52;9.40;;;10.50;99.90;;;;;;15470825;23;20047;-81
2023/10/24 21:13:15;;;;;;;11.43;8.85;;;10.40;99.90;;;;;;15466732;23;20458;-81
2023/10/24 21:19:17;;;;;;;13.65;10.20;;;10.30;99.90;;;;;;15320635;23;20036;-81
2023/10/24 21:25:19;;;;;;;11.73;9.18;;;10.40;99.90;;;;;;15295201;23;20021;-81
2023/10/24 21:31:21;;;;;;;13.43;9.95;;;10.40;99.90;;;;;;15294674;23;20028;-80
2023/10/24 21:37:24;;;;;;;13.15;8.98;;;10.40;99.90;;;;;;15316416;23;20033;-81
2023/10/24 21:43:26;;;;;;;13.20;8.77;;;10.40;99.90;;;;;;15325484;23;20520;-81
2023/10/24 21:49:28;;;;;;;14.52;9.70;;;10.30;99.90;;;;;;15300620;23;20454;-81
2023/10/24 21:55:30;;;;;;;14.23;9.63;;;10.40;99.90;;;;;;15315890;23;20025;-81
2023/10/24 22:01:32;;;;;;;13.40;9.57;;;10.30;99.90;;;;;;15320913;23;20025;-80
2023/10/24 22:07:34;;;;;;;13.38;9.73;;;10.30;99.90;;;;;;15319160;23;20029;-81
2023/10/24 22:13:36;;;;;;;15.98;10.23;;;10.20;99.90;;;;;;15297823;23;20045;-81
2023/10/24 22:19:37;;;;;;;12.48;9.43;;;10.20;99.90;;;;;;15447679;23;20459;-82
2023/10/24 22:25:40;;;;;;;13.90;9.25;;;10.00;99.90;;;;;;15450033;23;20079;-81
2023/10/24 22:31:41;;;;;;;13.77;9.00;;;10.10;99.90;;;;;;15444093;23;20027;-84
2023/10/24 22:37:44;;;;;;;12.15;8.82;;;10.00;99.90;;;;;;15447157;23;20032;-83
2023/10/24 22:43:46;;;;;;;12.90;8.70;;;10.10;99.90;;;;;;15447423;23;20075;-82
2023/10/24 22:49:48;;;;;;;13.90;8.68;;;10.00;99.90;;;;;;15441921;23;20362;-81
2023/10/24 22:55:50;;;;;;;11.85;9.00;;;10.00;99.90;;;;;;15446311;22;20477;-80
2023/10/24 23:01:52;;;;;;;14.02;7.80;;;10.00;99.90;;;;;;15439359;23;20032;-81
2023/10/24 23:07:54;;;;;;;9.98;7.13;;;10.00;99.90;;;;;;15433403;23;20474;-81
2023/10/24 23:13:56;;;;;;;11.60;7.18;;;9.90;99.90;;;;;;15441029;23;20028;-80
2023/10/24 23:20:00;;;;;;;12.60;7.15;;;9.90;99.90;;;;;;15433915;23;20020;-83
2023/10/24 23:26:02;;;;;;;10.82;7.43;;;10.00;99.90;;;;;;15464158;23;20571;-82
2023/10/24 23:32:04;;;;;;;10.68;6.68;;;9.90;99.90;;;;;;15445338;23;20028;-82
2023/10/24 23:38:07;;;;;;;10.45;6.53;;;9.80;99.90;;;;;;15439000;23;20028;-81
2023/10/24 23:44:09;;;;;;;10.15;6.53;;;9.90;99.90;;;;;;15441280;23;20035;-81
2023/10/24 23:50:11;;;;;;;9.68;6.18;;;9.80;99.90;;;;;;15470739;23;20020;-81
2023/10/24 23:56:13;;;;;;;8.32;5.93;;;9.80;99.90;;;;;;15445426;22;20024;-82
